Beringen, Belgium
Current Conditions -  °F | °C
As of 2:25 PM on Friday 19 Dec 2014 (Local Time) from EBDT Reporting Station
Overcast Overcast  
Wind Chill: 41°   Ceiling: 1500
Heat Index: 46°   Visibility: 2.7mi
Dew Point: 45°   Wind: 13mph
Humidity: 93%   Direction: 320°NW
Pressure: 29.94"   Gusts: NA
Location:  51.05°N, 5.23°E
Report Text: EBDT 191325Z AUTO 32011KT 4400 FEW009/// BKN015/// OVC020/// 08/07 Q1014 GRN
Loading
Personal Weather Stations






























Interactive Weather Map New forecast layout! Learn more

10-Day Weather Forecast

Advertisements
Track Severe Weather on mobile